sensor_id;sensor_type;location;lat;lon;timestamp;temperature;humidity
52979;DHT22;63430;53.186;6.598;2023-03-17T00:01:34;7.80;97.40
52979;DHT22;63430;53.186;6.598;2023-03-17T00:03:39;8.70;97.70
52979;DHT22;63430;53.186;6.598;2023-03-17T00:05:41;7.80;97.40
52979;DHT22;63430;53.186;6.598;2023-03-17T00:07:44;7.90;97.20
52979;DHT22;63430;53.186;6.598;2023-03-17T00:09:47;7.90;97.50
52979;DHT22;63430;53.186;6.598;2023-03-17T00:11:52;8.50;97.20
52979;DHT22;63430;53.186;6.598;2023-03-17T00:13:55;7.90;97.00
52979;DHT22;63430;53.186;6.598;2023-03-17T00:16:01;7.90;97.00
52979;DHT22;63430;53.186;6.598;2023-03-17T00:18:10;7.90;96.90
52979;DHT22;63430;53.186;6.598;2023-03-17T00:20:23;7.90;96.90
52979;DHT22;63430;53.186;6.598;2023-03-17T00:22:26;7.90;96.80
52979;DHT22;63430;53.186;6.598;2023-03-17T00:24:30;7.90;96.70
52979;DHT22;63430;53.186;6.598;2023-03-17T00:26:32;7.90;96.60
52979;DHT22;63430;53.186;6.598;2023-03-17T00:28:38;7.90;96.50
52979;DHT22;63430;53.186;6.598;2023-03-17T00:30:40;7.90;96.50
52979;DHT22;63430;53.186;6.598;2023-03-17T00:32:44;7.90;96.30
52979;DHT22;63430;53.186;6.598;2023-03-17T00:34:47;7.90;96.30
52979;DHT22;63430;53.186;6.598;2023-03-17T00:36:50;8.00;96.40
52979;DHT22;63430;53.186;6.598;2023-03-17T00:38:53;8.00;96.30
52979;DHT22;63430;53.186;6.598;2023-03-17T00:40:55;8.00;96.30
52979;DHT22;63430;53.186;6.598;2023-03-17T00:42:58;7.90;96.20
52979;DHT22;63430;53.186;6.598;2023-03-17T00:45:08;8.00;96.10
52979;DHT22;63430;53.186;6.598;2023-03-17T00:47:11;8.00;96.00
52979;DHT22;63430;53.186;6.598;2023-03-17T00:49:24;7.90;96.10
52979;DHT22;63430;53.186;6.598;2023-03-17T00:51:30;7.90;96.00
52979;DHT22;63430;53.186;6.598;2023-03-17T00:53:34;8.00;96.10
52979;DHT22;63430;53.186;6.598;2023-03-17T00:55:37;8.00;95.80
52979;DHT22;63430;53.186;6.598;2023-03-17T00:57:39;8.00;95.80
52979;DHT22;63430;53.186;6.598;2023-03-17T00:59:44;8.00;95.80
52979;DHT22;63430;53.186;6.598;2023-03-17T01:01:50;7.90;95.70
52979;DHT22;63430;53.186;6.598;2023-03-17T01:03:52;8.00;95.70
52979;DHT22;63430;53.186;6.598;2023-03-17T01:05:55;8.50;95.80
52979;DHT22;63430;53.186;6.598;2023-03-17T01:08:01;8.00;95.70
52979;DHT22;63430;53.186;6.598;2023-03-17T01:10:11;8.70;95.70
52979;DHT22;63430;53.186;6.598;2023-03-17T01:12:15;7.90;95.60
52979;DHT22;63430;53.186;6.598;2023-03-17T01:14:18;8.00;95.40
52979;DHT22;63430;53.186;6.598;2023-03-17T01:16:22;8.00;95.40
52979;DHT22;63430;53.186;6.598;2023-03-17T01:18:27;8.00;95.50
52979;DHT22;63430;53.186;6.598;2023-03-17T01:20:37;8.00;95.30
52979;DHT22;63430;53.186;6.598;2023-03-17T01:22:41;8.00;95.30
52979;DHT22;63430;53.186;6.598;2023-03-17T01:24:44;8.60;95.50
52979;DHT22;63430;53.186;6.598;2023-03-17T01:26:49;7.90;95.40
52979;DHT22;63430;53.186;6.598;2023-03-17T01:28:52;7.90;95.40
52979;DHT22;63430;53.186;6.598;2023-03-17T01:30:55;7.90;95.30
52979;DHT22;63430;53.186;6.598;2023-03-17T01:32:58;8.00;95.30
52979;DHT22;63430;53.186;6.598;2023-03-17T01:35:04;8.00;95.30
52979;DHT22;63430;53.186;6.598;2023-03-17T01:37:08;8.00;95.30
52979;DHT22;63430;53.186;6.598;2023-03-17T01:39:11;7.90;95.30
52979;DHT22;63430;53.186;6.598;2023-03-17T01:41:19;7.90;95.20
52979;DHT22;63430;53.186;6.598;2023-03-17T01:43:24;8.00;95.00
52979;DHT22;63430;53.186;6.598;2023-03-17T01:48:00;7.90;94.70
52979;DHT22;63430;53.186;6.598;2023-03-17T01:50:08;7.90;95.00
52979;DHT22;63430;53.186;6.598;2023-03-17T01:52:15;7.90;94.90
52979;DHT22;63430;53.186;6.598;2023-03-17T01:54:27;7.90;95.00
52979;DHT22;63430;53.186;6.598;2023-03-17T01:56:30;8.00;95.00
52979;DHT22;63430;53.186;6.598;2023-03-17T01:58:34;7.90;94.90
52979;DHT22;63430;53.186;6.598;2023-03-17T02:00:36;7.90;94.90
52979;DHT22;63430;53.186;6.598;2023-03-17T02:02:43;7.90;94.80
52979;DHT22;63430;53.186;6.598;2023-03-17T02:04:45;8.30;94.70
52979;DHT22;63430;53.186;6.598;2023-03-17T02:06:58;8.60;94.70
52979;DHT22;63430;53.186;6.598;2023-03-17T02:09:04;7.90;94.60
52979;DHT22;63430;53.186;6.598;2023-03-17T02:11:07;7.90;94.70
52979;DHT22;63430;53.186;6.598;2023-03-17T02:13:11;7.80;94.80
52979;DHT22;63430;53.186;6.598;2023-03-17T02:15:15;7.90;94.80
52979;DHT22;63430;53.186;6.598;2023-03-17T02:17:20;7.90;94.80
52979;DHT22;63430;53.186;6.598;2023-03-17T02:19:24;7.90;94.80
52979;DHT22;63430;53.186;6.598;2023-03-17T02:21:37;7.80;94.70
52979;DHT22;63430;53.186;6.598;2023-03-17T02:23:42;7.90;94.50
52979;DHT22;63430;53.186;6.598;2023-03-17T02:25:46;7.80;94.60
52979;DHT22;63430;53.186;6.598;2023-03-17T02:27:51;8.20;94.60
52979;DHT22;63430;53.186;6.598;2023-03-17T02:29:55;7.80;94.50
52979;DHT22;63430;53.186;6.598;2023-03-17T02:31:59;7.80;94.70
52979;DHT22;63430;53.186;6.598;2023-03-17T02:34:04;7.80;94.70
52979;DHT22;63430;53.186;6.598;2023-03-17T02:36:08;7.80;94.40
52979;DHT22;63430;53.186;6.598;2023-03-17T02:38:14;7.80;94.30
52979;DHT22;63430;53.186;6.598;2023-03-17T02:40:17;7.80;94.10
52979;DHT22;63430;53.186;6.598;2023-03-17T02:42:20;7.80;94.10
52979;DHT22;63430;53.186;6.598;2023-03-17T02:44:23;8.20;94.20
52979;DHT22;63430;53.186;6.598;2023-03-17T02:46:28;7.80;94.10
52979;DHT22;63430;53.186;6.598;2023-03-17T02:48:34;7.80;94.10
52979;DHT22;63430;53.186;6.598;2023-03-17T02:50:38;7.80;94.00
52979;DHT22;63430;53.186;6.598;2023-03-17T02:52:40;7.80;94.00
52979;DHT22;63430;53.186;6.598;2023-03-17T02:54:45;7.80;94.10
52979;DHT22;63430;53.186;6.598;2023-03-17T02:56:48;7.60;94.10
52979;DHT22;63430;53.186;6.598;2023-03-17T02:58:51;7.80;94.00
52979;DHT22;63430;53.186;6.598;2023-03-17T03:00:53;7.80;94.00
52979;DHT22;63430;53.186;6.598;2023-03-17T03:02:56;7.80;94.10
52979;DHT22;63430;53.186;6.598;2023-03-17T03:04:59;7.80;94.10
52979;DHT22;63430;53.186;6.598;2023-03-17T03:07:06;7.80;94.20
52979;DHT22;63430;53.186;6.598;2023-03-17T03:09:08;7.80;94.20
52979;DHT22;63430;53.186;6.598;2023-03-17T03:11:15;7.70;94.10
52979;DHT22;63430;53.186;6.598;2023-03-17T03:13:18;7.70;94.00
52979;DHT22;63430;53.186;6.598;2023-03-17T03:15:20;8.20;94.10
52979;DHT22;63430;53.186;6.598;2023-03-17T03:17:24;7.70;94.10
52979;DHT22;63430;53.186;6.598;2023-03-17T03:19:27;7.70;94.20
52979;DHT22;63430;53.186;6.598;2023-03-17T03:21:30;7.70;94.10
52979;DHT22;63430;53.186;6.598;2023-03-17T03:23:33;7.70;94.30
52979;DHT22;63430;53.186;6.598;2023-03-17T03:25:36;7.70;94.40
52979;DHT22;63430;53.186;6.598;2023-03-17T03:27:41;7.70;94.40
52979;DHT22;63430;53.186;6.598;2023-03-17T03:29:44;7.70;94.50
52979;DHT22;63430;53.186;6.598;2023-03-17T03:31:47;7.60;94.60
52979;DHT22;63430;53.186;6.598;2023-03-17T03:33:50;8.90;94.90
52979;DHT22;63430;53.186;6.598;2023-03-17T03:35:52;7.60;94.50
52979;DHT22;63430;53.186;6.598;2023-03-17T03:37:56;7.70;94.60
52979;DHT22;63430;53.186;6.598;2023-03-17T03:39:58;7.60;94.60
52979;DHT22;63430;53.186;6.598;2023-03-17T03:42:01;7.60;94.70
52979;DHT22;63430;53.186;6.598;2023-03-17T03:44:06;7.60;94.70
52979;DHT22;63430;53.186;6.598;2023-03-17T03:46:09;7.60;94.80
52979;DHT22;63430;53.186;6.598;2023-03-17T03:48:12;7.60;94.80
52979;DHT22;63430;53.186;6.598;2023-03-17T03:50:15;7.90;94.90
52979;DHT22;63430;53.186;6.598;2023-03-17T03:52:18;7.60;94.90
52979;DHT22;63430;53.186;6.598;2023-03-17T03:54:20;7.60;94.90
52979;DHT22;63430;53.186;6.598;2023-03-17T03:56:23;8.40;95.20
52979;DHT22;63430;53.186;6.598;2023-03-17T03:58:26;7.60;95.00
52979;DHT22;63430;53.186;6.598;2023-03-17T04:00:31;7.60;95.10
52979;DHT22;63430;53.186;6.598;2023-03-17T04:02:43;7.60;95.00
52979;DHT22;63430;53.186;6.598;2023-03-17T04:04:48;7.60;95.00
52979;DHT22;63430;53.186;6.598;2023-03-17T04:06:51;7.90;95.00
52979;DHT22;63430;53.186;6.598;2023-03-17T04:08:54;7.60;94.90
52979;DHT22;63430;53.186;6.598;2023-03-17T04:10:59;7.50;94.90
52979;DHT22;63430;53.186;6.598;2023-03-17T04:13:02;7.60;95.00
52979;DHT22;63430;53.186;6.598;2023-03-17T04:15:06;7.70;95.10
52979;DHT22;63430;53.186;6.598;2023-03-17T04:17:13;7.50;95.10
52979;DHT22;63430;53.186;6.598;2023-03-17T04:19:16;7.50;95.10
52979;DHT22;63430;53.186;6.598;2023-03-17T04:21:19;8.20;95.40
52979;DHT22;63430;53.186;6.598;2023-03-17T04:23:22;7.80;95.30
52979;DHT22;63430;53.186;6.598;2023-03-17T04:25:25;7.70;95.30
52979;DHT22;63430;53.186;6.598;2023-03-17T04:27:28;8.00;95.30
52979;DHT22;63430;53.186;6.598;2023-03-17T04:29:30;7.50;95.10
52979;DHT22;63430;53.186;6.598;2023-03-17T04:31:33;8.20;95.40
52979;DHT22;63430;53.186;6.598;2023-03-17T04:33:39;7.90;95.30
52979;DHT22;63430;53.186;6.598;2023-03-17T04:35:43;7.50;95.20
52979;DHT22;63430;53.186;6.598;2023-03-17T04:37:47;7.50;95.30
52979;DHT22;63430;53.186;6.598;2023-03-17T04:39:50;7.50;95.40
52979;DHT22;63430;53.186;6.598;2023-03-17T04:41:53;7.40;95.30
52979;DHT22;63430;53.186;6.598;2023-03-17T04:44:04;7.40;95.40
52979;DHT22;63430;53.186;6.598;2023-03-17T04:46:10;7.40;95.50
52979;DHT22;63430;53.186;6.598;2023-03-17T04:48:13;7.40;95.50
52979;DHT22;63430;53.186;6.598;2023-03-17T04:50:18;7.40;95.60
52979;DHT22;63430;53.186;6.598;2023-03-17T04:52:21;7.40;95.60
52979;DHT22;63430;53.186;6.598;2023-03-17T04:54:23;7.30;95.70
52979;DHT22;63430;53.186;6.598;2023-03-17T04:56:26;7.30;95.70
52979;DHT22;63430;53.186;6.598;2023-03-17T04:58:29;7.30;96.00
52979;DHT22;63430;53.186;6.598;2023-03-17T05:00:32;7.30;95.80
52979;DHT22;63430;53.186;6.598;2023-03-17T05:02:46;7.30;95.80
52979;DHT22;63430;53.186;6.598;2023-03-17T05:04:51;7.30;95.80
52979;DHT22;63430;53.186;6.598;2023-03-17T05:07:00;7.30;96.00
52979;DHT22;63430;53.186;6.598;2023-03-17T05:09:04;7.40;95.80
52979;DHT22;63430;53.186;6.598;2023-03-17T05:11:07;7.30;95.80
52979;DHT22;63430;53.186;6.598;2023-03-17T05:13:10;7.30;95.90
52979;DHT22;63430;53.186;6.598;2023-03-17T05:15:13;7.30;95.90
52979;DHT22;63430;53.186;6.598;2023-03-17T05:17:15;7.30;95.90
52979;DHT22;63430;53.186;6.598;2023-03-17T05:19:20;7.30;95.90
52979;DHT22;63430;53.186;6.598;2023-03-17T05:21:23;7.30;95.80
52979;DHT22;63430;53.186;6.598;2023-03-17T05:23:28;7.30;95.90
52979;DHT22;63430;53.186;6.598;2023-03-17T05:25:31;7.30;95.70
52979;DHT22;63430;53.186;6.598;2023-03-17T05:27:34;7.50;95.80
52979;DHT22;63430;53.186;6.598;2023-03-17T05:29:37;7.40;95.80
52979;DHT22;63430;53.186;6.598;2023-03-17T05:31:59;7.40;95.80
52979;DHT22;63430;53.186;6.598;2023-03-17T05:34:22;7.50;95.90
52979;DHT22;63430;53.186;6.598;2023-03-17T05:36:44;7.20;95.80
52979;DHT22;63430;53.186;6.598;2023-03-17T05:39:10;7.40;95.90
52979;DHT22;63430;53.186;6.598;2023-03-17T05:41:35;7.40;95.80
52979;DHT22;63430;53.186;6.598;2023-03-17T05:43:58;7.40;95.60
52979;DHT22;63430;53.186;6.598;2023-03-17T05:46:20;7.50;95.60
52979;DHT22;63430;53.186;6.598;2023-03-17T05:48:23;7.60;95.60
52979;DHT22;63430;53.186;6.598;2023-03-17T05:50:27;7.50;95.40
52979;DHT22;63430;53.186;6.598;2023-03-17T05:52:29;7.50;95.50
52979;DHT22;63430;53.186;6.598;2023-03-17T05:54:35;7.50;95.50
52979;DHT22;63430;53.186;6.598;2023-03-17T05:56:39;7.50;95.50
52979;DHT22;63430;53.186;6.598;2023-03-17T05:58:44;7.60;95.50
52979;DHT22;63430;53.186;6.598;2023-03-17T06:00:48;7.70;95.50
52979;DHT22;63430;53.186;6.598;2023-03-17T06:03:00;7.60;95.40
52979;DHT22;63430;53.186;6.598;2023-03-17T06:05:05;7.60;95.50
52979;DHT22;63430;53.186;6.598;2023-03-17T06:07:10;7.60;95.40
52979;DHT22;63430;53.186;6.598;2023-03-17T06:09:16;7.60;95.40
52979;DHT22;63430;53.186;6.598;2023-03-17T06:11:22;7.70;95.40
52979;DHT22;63430;53.186;6.598;2023-03-17T06:13:44;7.70;95.40
52979;DHT22;63430;53.186;6.598;2023-03-17T06:16:07;7.70;95.30
52979;DHT22;63430;53.186;6.598;2023-03-17T06:18:30;7.70;95.20
52979;DHT22;63430;53.186;6.598;2023-03-17T06:20:54;7.70;95.10
52979;DHT22;63430;53.186;6.598;2023-03-17T06:22:56;7.80;95.30
52979;DHT22;63430;53.186;6.598;2023-03-17T06:25:06;8.10;95.40
52979;DHT22;63430;53.186;6.598;2023-03-17T06:27:12;7.80;95.30
52979;DHT22;63430;53.186;6.598;2023-03-17T06:29:16;8.40;95.40
52979;DHT22;63430;53.186;6.598;2023-03-17T06:31:18;7.90;95.10
52979;DHT22;63430;53.186;6.598;2023-03-17T06:33:21;8.00;95.10
52979;DHT22;63430;53.186;6.598;2023-03-17T06:35:23;8.00;94.80
52979;DHT22;63430;53.186;6.598;2023-03-17T06:37:26;8.00;94.70
52979;DHT22;63430;53.186;6.598;2023-03-17T06:39:29;8.10;94.70
52979;DHT22;63430;53.186;6.598;2023-03-17T06:41:31;8.10;94.50
52979;DHT22;63430;53.186;6.598;2023-03-17T06:43:36;8.10;94.70
52979;DHT22;63430;53.186;6.598;2023-03-17T06:45:39;8.00;94.70
52979;DHT22;63430;53.186;6.598;2023-03-17T06:47:42;8.50;94.80
52979;DHT22;63430;53.186;6.598;2023-03-17T06:49:45;8.10;94.40
52979;DHT22;63430;53.186;6.598;2023-03-17T06:51:47;8.10;94.60
52979;DHT22;63430;53.186;6.598;2023-03-17T06:53:50;8.10;94.50
52979;DHT22;63430;53.186;6.598;2023-03-17T06:55:53;8.10;94.50
52979;DHT22;63430;53.186;6.598;2023-03-17T06:57:55;8.10;94.60
52979;DHT22;63430;53.186;6.598;2023-03-17T07:00:00;8.10;94.70
52979;DHT22;63430;53.186;6.598;2023-03-17T07:02:03;8.10;94.60
52979;DHT22;63430;53.186;6.598;2023-03-17T07:04:06;8.20;94.80
52979;DHT22;63430;53.186;6.598;2023-03-17T07:06:09;8.00;94.80
52979;DHT22;63430;53.186;6.598;2023-03-17T07:08:12;8.20;95.00
52979;DHT22;63430;53.186;6.598;2023-03-17T07:10:14;8.20;95.00
52979;DHT22;63430;53.186;6.598;2023-03-17T07:12:18;8.70;95.10
52979;DHT22;63430;53.186;6.598;2023-03-17T07:14:21;8.20;95.00
52979;DHT22;63430;53.186;6.598;2023-03-17T07:16:26;8.20;94.80
52979;DHT22;63430;53.186;6.598;2023-03-17T07:18:28;8.20;94.70
52979;DHT22;63430;53.186;6.598;2023-03-17T07:20:35;8.30;94.70
52979;DHT22;63430;53.186;6.598;2023-03-17T07:22:38;8.30;94.50
52979;DHT22;63430;53.186;6.598;2023-03-17T07:24:40;8.40;94.70
52979;DHT22;63430;53.186;6.598;2023-03-17T07:26:44;8.40;94.60
52979;DHT22;63430;53.186;6.598;2023-03-17T07:28:47;8.40;94.70
52979;DHT22;63430;53.186;6.598;2023-03-17T07:30:50;8.50;94.70
52979;DHT22;63430;53.186;6.598;2023-03-17T07:32:56;8.50;94.60
52979;DHT22;63430;53.186;6.598;2023-03-17T07:34:58;8.60;94.70
52979;DHT22;63430;53.186;6.598;2023-03-17T07:37:01;8.60;94.70
52979;DHT22;63430;53.186;6.598;2023-03-17T07:39:03;8.70;94.30
52979;DHT22;63430;53.186;6.598;2023-03-17T07:41:06;8.80;94.10
52979;DHT22;63430;53.186;6.598;2023-03-17T07:43:12;8.90;93.70
52979;DHT22;63430;53.186;6.598;2023-03-17T07:45:14;8.90;93.70
52979;DHT22;63430;53.186;6.598;2023-03-17T07:47:17;9.00;93.60
52979;DHT22;63430;53.186;6.598;2023-03-17T07:49:22;9.10;93.50
52979;DHT22;63430;53.186;6.598;2023-03-17T07:51:41;9.20;93.20
52979;DHT22;63430;53.186;6.598;2023-03-17T07:53:47;9.90;93.20
52979;DHT22;63430;53.186;6.598;2023-03-17T07:55:51;9.70;93.00
52979;DHT22;63430;53.186;6.598;2023-03-17T07:57:53;9.50;92.20
52979;DHT22;63430;53.186;6.598;2023-03-17T07:59:56;9.50;91.30
52979;DHT22;63430;53.186;6.598;2023-03-17T08:01:59;9.80;91.60
52979;DHT22;63430;53.186;6.598;2023-03-17T08:04:03;9.60;91.50
52979;DHT22;63430;53.186;6.598;2023-03-17T08:06:08;9.60;91.30
52979;DHT22;63430;53.186;6.598;2023-03-17T08:08:11;9.70;91.40
52979;DHT22;63430;53.186;6.598;2023-03-17T08:10:13;9.70;91.20
52979;DHT22;63430;53.186;6.598;2023-03-17T08:12:16;9.80;91.30
52979;DHT22;63430;53.186;6.598;2023-03-17T08:14:18;9.70;91.50
52979;DHT22;63430;53.186;6.598;2023-03-17T08:16:21;10.40;91.60
52979;DHT22;63430;53.186;6.598;2023-03-17T08:18:24;9.80;91.10
52979;DHT22;63430;53.186;6.598;2023-03-17T08:20:29;9.90;91.10
52979;DHT22;63430;53.186;6.598;2023-03-17T08:22:35;9.80;91.10
52979;DHT22;63430;53.186;6.598;2023-03-17T08:24:38;9.90;90.50
52979;DHT22;63430;53.186;6.598;2023-03-17T08:26:46;9.80;90.80
52979;DHT22;63430;53.186;6.598;2023-03-17T08:28:49;10.40;90.80
52979;DHT22;63430;53.186;6.598;2023-03-17T08:30:52;9.80;90.90
52979;DHT22;63430;53.186;6.598;2023-03-17T08:32:54;9.90;90.80
52979;DHT22;63430;53.186;6.598;2023-03-17T08:34:57;9.90;90.80
52979;DHT22;63430;53.186;6.598;2023-03-17T08:37:00;9.80;90.50
52979;DHT22;63430;53.186;6.598;2023-03-17T08:39:05;9.90;90.20
52979;DHT22;63430;53.186;6.598;2023-03-17T08:41:10;9.80;90.30
52979;DHT22;63430;53.186;6.598;2023-03-17T08:43:17;10.30;90.60
52979;DHT22;63430;53.186;6.598;2023-03-17T08:45:20;9.90;90.70
52979;DHT22;63430;53.186;6.598;2023-03-17T08:47:22;9.90;90.90
52979;DHT22;63430;53.186;6.598;2023-03-17T08:49:25;9.90;90.80
52979;DHT22;63430;53.186;6.598;2023-03-17T08:51:30;9.90;90.90
52979;DHT22;63430;53.186;6.598;2023-03-17T08:53:33;10.00;91.00
52979;DHT22;63430;53.186;6.598;2023-03-17T08:55:39;10.00;91.00
52979;DHT22;63430;53.186;6.598;2023-03-17T08:57:41;10.10;91.00
52979;DHT22;63430;53.186;6.598;2023-03-17T08:59:46;10.20;90.90
52979;DHT22;63430;53.186;6.598;2023-03-17T09:01:48;10.30;90.90
52979;DHT22;63430;53.186;6.598;2023-03-17T09:03:53;10.40;90.90
52979;DHT22;63430;53.186;6.598;2023-03-17T09:05:56;10.40;90.70
52979;DHT22;63430;53.186;6.598;2023-03-17T09:07:59;10.80;90.70
52979;DHT22;63430;53.186;6.598;2023-03-17T09:10:02;10.60;90.30
52979;DHT22;63430;53.186;6.598;2023-03-17T09:12:08;10.70;90.00
52979;DHT22;63430;53.186;6.598;2023-03-17T09:14:11;10.70;89.90
52979;DHT22;63430;53.186;6.598;2023-03-17T09:16:14;10.90;89.40
52979;DHT22;63430;53.186;6.598;2023-03-17T09:18:18;10.90;89.10
52979;DHT22;63430;53.186;6.598;2023-03-17T09:20:23;11.10;88.60
52979;DHT22;63430;53.186;6.598;2023-03-17T09:22:25;11.20;87.10
52979;DHT22;63430;53.186;6.598;2023-03-17T09:24:29;11.30;85.90
52979;DHT22;63430;53.186;6.598;2023-03-17T09:26:31;11.40;85.50
52979;DHT22;63430;53.186;6.598;2023-03-17T09:28:36;11.50;84.20
52979;DHT22;63430;53.186;6.598;2023-03-17T09:30:40;11.50;83.90
52979;DHT22;63430;53.186;6.598;2023-03-17T09:32:44;11.60;84.70
52979;DHT22;63430;53.186;6.598;2023-03-17T09:34:47;11.70;84.40
52979;DHT22;63430;53.186;6.598;2023-03-17T09:36:53;11.80;84.70
52979;DHT22;63430;53.186;6.598;2023-03-17T09:38:55;12.00;84.40
52979;DHT22;63430;53.186;6.598;2023-03-17T09:41:02;12.60;82.40
52979;DHT22;63430;53.186;6.598;2023-03-17T09:43:16;12.10;80.00
52979;DHT22;63430;53.186;6.598;2023-03-17T09:45:30;12.10;79.80
52979;DHT22;63430;53.186;6.598;2023-03-17T09:47:52;12.20;80.60
52979;DHT22;63430;53.186;6.598;2023-03-17T09:49:58;12.20;79.80
52979;DHT22;63430;53.186;6.598;2023-03-17T09:52:02;12.20;79.90
52979;DHT22;63430;53.186;6.598;2023-03-17T09:54:09;12.30;79.90
52979;DHT22;63430;53.186;6.598;2023-03-17T09:56:14;12.30;79.60
52979;DHT22;63430;53.186;6.598;2023-03-17T09:58:20;12.70;79.80
52979;DHT22;63430;53.186;6.598;2023-03-17T10:00:30;12.40;79.90
52979;DHT22;63430;53.186;6.598;2023-03-17T10:02:34;12.40;78.90
52979;DHT22;63430;53.186;6.598;2023-03-17T10:04:38;12.50;78.30
52979;DHT22;63430;53.186;6.598;2023-03-17T10:06:44;12.70;79.10
52979;DHT22;63430;53.186;6.598;2023-03-17T10:08:54;12.80;78.20
52979;DHT22;63430;53.186;6.598;2023-03-17T10:11:02;13.00;77.50
52979;DHT22;63430;53.186;6.598;2023-03-17T10:13:16;13.00;77.10
52979;DHT22;63430;53.186;6.598;2023-03-17T10:15:30;13.00;77.20
52979;DHT22;63430;53.186;6.598;2023-03-17T10:17:37;13.10;76.80
52979;DHT22;63430;53.186;6.598;2023-03-17T10:19:43;13.10;77.20
52979;DHT22;63430;53.186;6.598;2023-03-17T10:21:50;13.10;76.30
52979;DHT22;63430;53.186;6.598;2023-03-17T10:23:55;13.80;76.60
52979;DHT22;63430;53.186;6.598;2023-03-17T10:26:04;13.20;76.80
52979;DHT22;63430;53.186;6.598;2023-03-17T10:28:20;13.30;76.50
52979;DHT22;63430;53.186;6.598;2023-03-17T10:30:25;13.40;76.80
52979;DHT22;63430;53.186;6.598;2023-03-17T10:32:34;13.60;76.90
52979;DHT22;63430;53.186;6.598;2023-03-17T10:34:39;13.90;76.40
52979;DHT22;63430;53.186;6.598;2023-03-17T10:36:45;13.90;76.20
52979;DHT22;63430;53.186;6.598;2023-03-17T10:38:50;14.00;76.20
52979;DHT22;63430;53.186;6.598;2023-03-17T10:40:56;14.40;76.00
52979;DHT22;63430;53.186;6.598;2023-03-17T10:43:01;14.40;75.30
52979;DHT22;63430;53.186;6.598;2023-03-17T10:45:14;14.50;75.00
52979;DHT22;63430;53.186;6.598;2023-03-17T10:47:29;14.70;72.20
52979;DHT22;63430;53.186;6.598;2023-03-17T10:49:35;14.70;71.70
52979;DHT22;63430;53.186;6.598;2023-03-17T10:51:38;14.90;70.50
52979;DHT22;63430;53.186;6.598;2023-03-17T10:53:41;15.10;71.00
52979;DHT22;63430;53.186;6.598;2023-03-17T10:55:48;15.10;70.60
52979;DHT22;63430;53.186;6.598;2023-03-17T10:57:52;15.20;70.10
52979;DHT22;63430;53.186;6.598;2023-03-17T10:59:59;15.30;70.10
52979;DHT22;63430;53.186;6.598;2023-03-17T11:02:11;15.40;69.10
52979;DHT22;63430;53.186;6.598;2023-03-17T11:04:25;15.50;66.80
52979;DHT22;63430;53.186;6.598;2023-03-17T11:06:37;15.50;66.80
52979;DHT22;63430;53.186;6.598;2023-03-17T11:08:45;15.60;64.20
52979;DHT22;63430;53.186;6.598;2023-03-17T11:10:53;15.70;64.40
52979;DHT22;63430;53.186;6.598;2023-03-17T11:12:58;15.90;65.60
52979;DHT22;63430;53.186;6.598;2023-03-17T11:15:04;16.00;66.20
52979;DHT22;63430;53.186;6.598;2023-03-17T11:17:15;16.00;65.50
52979;DHT22;63430;53.186;6.598;2023-03-17T11:19:19;16.00;62.30
52979;DHT22;63430;53.186;6.598;2023-03-17T11:21:26;15.90;63.90
52979;DHT22;63430;53.186;6.598;2023-03-17T11:23:49;15.80;64.20
52979;DHT22;63430;53.186;6.598;2023-03-17T11:25:58;15.70;60.80
52979;DHT22;63430;53.186;6.598;2023-03-17T11:28:13;15.70;63.50
52979;DHT22;63430;53.186;6.598;2023-03-17T11:30:25;15.70;63.30
52979;DHT22;63430;53.186;6.598;2023-03-17T11:32:34;15.80;64.20
52979;DHT22;63430;53.186;6.598;2023-03-17T11:34:47;15.90;64.10
52979;DHT22;63430;53.186;6.598;2023-03-17T11:36:58;16.00;62.00
52979;DHT22;63430;53.186;6.598;2023-03-17T11:39:10;16.10;64.30
52979;DHT22;63430;53.186;6.598;2023-03-17T11:41:37;16.20;63.70
52979;DHT22;63430;53.186;6.598;2023-03-17T11:43:51;16.30;61.40
52979;DHT22;63430;53.186;6.598;2023-03-17T11:46:02;16.40;63.80
52979;DHT22;63430;53.186;6.598;2023-03-17T11:48:16;16.40;60.10
52979;DHT22;63430;53.186;6.598;2023-03-17T11:50:26;16.40;58.90
52979;DHT22;63430;53.186;6.598;2023-03-17T11:52:47;16.30;60.40
52979;DHT22;63430;53.186;6.598;2023-03-17T11:55:00;16.40;59.90
52979;DHT22;63430;53.186;6.598;2023-03-17T11:57:11;16.40;59.50
52979;DHT22;63430;53.186;6.598;2023-03-17T11:59:25;16.40;60.20
52979;DHT22;63430;53.186;6.598;2023-03-17T12:01:34;16.50;59.60
52979;DHT22;63430;53.186;6.598;2023-03-17T12:03:40;16.60;60.30
52979;DHT22;63430;53.186;6.598;2023-03-17T12:05:45;16.60;58.70
52979;DHT22;63430;53.186;6.598;2023-03-17T12:07:51;16.70;59.30
52979;DHT22;63430;53.186;6.598;2023-03-17T12:10:05;16.70;59.90
52979;DHT22;63430;53.186;6.598;2023-03-17T12:12:13;16.80;60.20
52979;DHT22;63430;53.186;6.598;2023-03-17T12:14:24;16.80;60.60
52979;DHT22;63430;53.186;6.598;2023-03-17T12:16:30;16.90;59.10
52979;DHT22;63430;53.186;6.598;2023-03-17T12:18:37;16.90;58.40
52979;DHT22;63430;53.186;6.598;2023-03-17T12:20:47;16.90;59.10
52979;DHT22;63430;53.186;6.598;2023-03-17T12:22:54;16.90;59.50
52979;DHT22;63430;53.186;6.598;2023-03-17T12:25:10;16.90;58.70
52979;DHT22;63430;53.186;6.598;2023-03-17T12:27:15;17.00;58.80
52979;DHT22;63430;53.186;6.598;2023-03-17T12:29:26;17.00;59.10
52979;DHT22;63430;53.186;6.598;2023-03-17T12:31:35;16.90;57.00
52979;DHT22;63430;53.186;6.598;2023-03-17T12:33:42;16.90;57.00
52979;DHT22;63430;53.186;6.598;2023-03-17T12:35:47;16.80;58.00
52979;DHT22;63430;53.186;6.598;2023-03-17T12:37:50;16.80;58.40
52979;DHT22;63430;53.186;6.598;2023-03-17T12:39:56;17.00;59.40
52979;DHT22;63430;53.186;6.598;2023-03-17T12:42:27;16.90;59.20
52979;DHT22;63430;53.186;6.598;2023-03-17T12:44:51;16.80;58.40
52979;DHT22;63430;53.186;6.598;2023-03-17T12:47:20;16.90;59.00
52979;DHT22;63430;53.186;6.598;2023-03-17T12:49:44;16.70;58.70
52979;DHT22;63430;53.186;6.598;2023-03-17T12:52:04;16.70;60.20
52979;DHT22;63430;53.186;6.598;2023-03-17T12:54:13;16.70;60.40
52979;DHT22;63430;53.186;6.598;2023-03-17T12:56:21;16.70;61.00
52979;DHT22;63430;53.186;6.598;2023-03-17T12:58:31;16.80;61.20
52979;DHT22;63430;53.186;6.598;2023-03-17T13:00:47;17.00;61.50
52979;DHT22;63430;53.186;6.598;2023-03-17T13:03:07;17.10;61.00
52979;DHT22;63430;53.186;6.598;2023-03-17T13:05:14;17.20;60.80
52979;DHT22;63430;53.186;6.598;2023-03-17T13:07:19;17.10;61.10
52979;DHT22;63430;53.186;6.598;2023-03-17T13:09:46;17.00;61.00
52979;DHT22;63430;53.186;6.598;2023-03-17T13:11:48;16.90;60.90
52979;DHT22;63430;53.186;6.598;2023-03-17T13:14:14;16.90;61.70
52979;DHT22;63430;53.186;6.598;2023-03-17T13:16:29;16.80;60.90
52979;DHT22;63430;53.186;6.598;2023-03-17T13:18:51;16.80;61.30
52979;DHT22;63430;53.186;6.598;2023-03-17T13:21:12;16.80;61.60
52979;DHT22;63430;53.186;6.598;2023-03-17T13:23:18;16.70;61.00
52979;DHT22;63430;53.186;6.598;2023-03-17T13:25:30;16.70;60.60
52979;DHT22;63430;53.186;6.598;2023-03-17T13:27:42;16.50;60.70
52979;DHT22;63430;53.186;6.598;2023-03-17T13:29:49;16.50;61.60